createdAt,value
2023-02-09T00:00:17.971Z,7.30
2023-02-09T00:02:55.323Z,6.80
2023-02-09T00:05:23.911Z,7.20
2023-02-09T00:07:59.044Z,6.93
2023-02-09T00:10:27.860Z,6.17
2023-02-09T00:13:20.156Z,5.57
2023-02-09T00:15:51.111Z,6.77
2023-02-09T00:18:29.399Z,7.93
2023-02-09T00:20:58.828Z,6.20
2023-02-09T00:23:34.396Z,6.30
2023-02-09T00:26:03.513Z,5.77
2023-02-09T00:28:39.176Z,7.10
2023-02-09T00:31:09.304Z,5.20
2023-02-09T00:33:52.426Z,6.37
2023-02-09T00:36:27.826Z,6.23
2023-02-09T00:39:03.083Z,5.13
2023-02-09T00:41:49.271Z,5.73
2023-02-09T00:44:24.150Z,6.37
2023-02-09T00:46:53.908Z,5.13
2023-02-09T00:49:30.072Z,4.80
2023-02-09T00:51:58.713Z,6.13
2023-02-09T00:54:34.090Z,5.37
2023-02-09T00:57:05.600Z,5.73
2023-02-09T00:59:42.154Z,5.00
2023-02-09T01:02:10.899Z,5.50
2023-02-09T01:04:48.177Z,5.40
2023-02-09T01:07:16.842Z,4.67
2023-02-09T01:09:53.431Z,6.93
2023-02-09T01:12:22.272Z,5.33
2023-02-09T01:14:57.229Z,5.87
2023-02-09T01:17:26.191Z,5.43
2023-02-09T01:20:04.116Z,7.07
2023-02-09T01:22:39.418Z,4.70
2023-02-09T01:25:10.381Z,6.37
2023-02-09T01:27:45.231Z,7.50
2023-02-09T01:30:14.983Z,5.83
2023-02-09T01:32:57.514Z,4.93
2023-02-09T01:35:27.490Z,6.87
2023-02-09T01:38:02.120Z,6.87
2023-02-09T01:40:30.715Z,5.97
2023-02-09T01:43:06.229Z,4.93
2023-02-09T01:45:38.463Z,5.93
2023-02-09T01:48:13.138Z,8.70
2023-02-09T01:50:47.280Z,6.80
2023-02-09T01:53:23.414Z,7.10
2023-02-09T01:55:56.216Z,6.23
2023-02-09T01:58:33.477Z,7.80
2023-02-09T02:01:02.996Z,8.20
2023-02-09T02:03:39.130Z,5.73
2023-02-09T02:06:19.335Z,6.03
2023-02-09T02:08:59.128Z,6.73
2023-02-09T02:11:29.876Z,5.50
2023-02-09T02:14:05.121Z,7.27
2023-02-09T02:16:46.106Z,7.40
2023-02-09T02:19:41.096Z,6.47
2023-02-09T02:22:44.895Z,6.37
2023-02-09T02:25:41.124Z,6.77
2023-02-09T02:28:28.455Z,8.03
2023-02-09T02:31:25.213Z,6.47
2023-02-09T02:34:02.511Z,6.90
2023-02-09T02:36:45.132Z,6.80
2023-02-09T02:39:22.573Z,8.00
2023-02-09T02:42:22.170Z,6.30
2023-02-09T02:44:57.730Z,6.20
2023-02-09T02:47:35.165Z,6.90
2023-02-09T02:50:11.866Z,6.47
2023-02-09T02:52:50.149Z,7.03
2023-02-09T02:55:20.917Z,8.17
2023-02-09T02:58:02.162Z,6.03
2023-02-09T03:00:35.334Z,6.83
2023-02-09T03:03:16.157Z,7.27
2023-02-09T03:05:59.326Z,6.17
2023-02-09T03:08:34.178Z,7.23
2023-02-09T03:11:02.455Z,6.43
2023-02-09T03:13:48.172Z,8.57
2023-02-09T03:16:33.291Z,6.63
2023-02-09T03:19:19.173Z,7.50
2023-02-09T03:21:53.145Z,5.77
2023-02-09T03:24:38.196Z,5.30
2023-02-09T03:27:16.484Z,6.27
2023-02-09T03:29:53.184Z,8.33
2023-02-09T03:32:23.571Z,7.07
2023-02-09T03:34:59.196Z,6.40
2023-02-09T03:37:28.828Z,6.43
2023-02-09T03:40:03.180Z,7.57
2023-02-09T03:42:31.395Z,9.93
2023-02-09T03:45:06.222Z,7.90
2023-02-09T03:47:34.451Z,6.70
2023-02-09T03:50:09.180Z,7.00
2023-02-09T03:52:39.198Z,5.43
2023-02-09T03:55:14.247Z,7.10
2023-02-09T03:57:42.441Z,7.20
2023-02-09T04:00:18.230Z,6.23
2023-02-09T04:02:46.568Z,8.10
2023-02-09T04:05:29.201Z,6.30
2023-02-09T04:08:00.546Z,7.83
2023-02-09T04:10:36.198Z,6.80
2023-02-09T04:13:04.362Z,6.90
2023-02-09T04:15:39.232Z,6.60
2023-02-09T04:18:07.442Z,7.87
2023-02-09T04:20:42.205Z,7.23
2023-02-09T04:23:11.839Z,8.13
2023-02-09T04:25:46.247Z,7.83
2023-02-09T04:28:14.417Z,7.17
2023-02-09T04:30:50.256Z,8.60
2023-02-09T04:33:18.619Z,9.73
2023-02-09T04:35:55.218Z,7.70
2023-02-09T04:38:24.974Z,9.27
2023-02-09T04:41:01.232Z,7.90
2023-02-09T04:43:29.689Z,7.37
2023-02-09T04:46:04.275Z,7.97
2023-02-09T04:48:32.519Z,8.67
2023-02-09T04:51:07.234Z,7.37
2023-02-09T04:53:37.108Z,8.17
2023-02-09T04:56:13.335Z,8.53
2023-02-09T04:59:01.007Z,9.77
2023-02-09T05:01:36.334Z,8.27
2023-02-09T05:04:11.509Z,8.87
2023-02-09T05:06:52.312Z,9.63
2023-02-09T05:09:21.852Z,9.70
2023-02-09T05:11:56.274Z,8.80
2023-02-09T05:14:24.434Z,8.90
2023-02-09T05:16:59.338Z,9.70
2023-02-09T05:19:27.538Z,8.13
2023-02-09T05:22:02.417Z,10.90
2023-02-09T05:24:32.168Z,10.87
2023-02-09T05:27:07.264Z,8.33
2023-02-09T05:29:35.459Z,9.87
2023-02-09T05:32:10.335Z,8.63
2023-02-09T05:34:40.084Z,9.43
2023-02-09T05:37:14.303Z,9.07
2023-02-09T05:39:44.402Z,11.07
2023-02-09T05:42:24.252Z,7.87
2023-02-09T05:44:52.703Z,9.53
2023-02-09T05:47:29.271Z,10.03
2023-02-09T05:49:57.512Z,9.70
2023-02-09T05:52:32.324Z,10.33
2023-02-09T05:55:02.101Z,12.23
2023-02-09T05:57:37.292Z,9.73
2023-02-09T06:00:06.346Z,10.43
2023-02-09T06:02:41.386Z,11.07
2023-02-09T06:05:16.552Z,8.67
2023-02-09T06:07:58.291Z,11.77
2023-02-09T06:10:34.315Z,9.03
2023-02-09T06:13:02.528Z,8.63
2023-02-09T06:15:37.336Z,9.40
2023-02-09T06:18:05.868Z,10.70
2023-02-09T06:20:40.330Z,10.60
2023-02-09T06:23:08.569Z,10.00
2023-02-09T06:25:46.326Z,11.13
2023-02-09T06:28:14.507Z,11.07
2023-02-09T06:30:49.663Z,9.07
2023-02-09T06:33:18.299Z,10.27
2023-02-09T06:35:53.355Z,13.00
2023-02-09T06:38:21.644Z,9.63
2023-02-09T06:40:58.332Z,12.53
2023-02-09T06:43:26.888Z,9.30
2023-02-09T06:46:03.700Z,11.77
2023-02-09T06:48:31.877Z,10.00
2023-02-09T06:51:06.345Z,11.37
2023-02-09T06:53:34.500Z,11.60
2023-02-09T06:56:10.338Z,10.60
2023-02-09T06:58:39.275Z,15.30
2023-02-09T07:01:15.326Z,10.83
2023-02-09T07:03:50.607Z,9.90
2023-02-09T07:06:31.342Z,11.87
2023-02-09T07:08:59.552Z,11.40
2023-02-09T07:11:37.378Z,9.80
2023-02-09T07:14:05.599Z,10.53
2023-02-09T07:16:40.352Z,9.30
2023-02-09T07:19:09.729Z,11.33
2023-02-09T07:21:44.385Z,9.80
2023-02-09T07:24:12.550Z,10.43
2023-02-09T07:26:49.355Z,17.63
2023-02-09T07:29:17.855Z,15.23
2023-02-09T07:31:52.440Z,11.97
2023-02-09T07:34:20.605Z,13.33
2023-02-09T07:36:55.375Z,13.97
2023-02-09T07:39:23.769Z,19.57
2023-02-09T07:42:00.455Z,14.37
2023-02-09T07:44:28.947Z,10.43
2023-02-09T07:47:03.376Z,12.93
2023-02-09T07:49:31.596Z,11.83
2023-02-09T07:52:06.416Z,11.63
2023-02-09T07:54:34.576Z,11.57
2023-02-09T07:57:10.413Z,11.07
2023-02-09T07:59:38.706Z,10.73
2023-02-09T08:02:14.410Z,11.90
2023-02-09T08:04:49.693Z,12.20
2023-02-09T08:07:30.418Z,14.13
2023-02-09T08:09:58.634Z,17.00
2023-02-09T08:12:51.389Z,17.10
2023-02-09T08:15:23.534Z,13.20
2023-02-09T08:17:59.400Z,11.77
2023-02-09T08:20:31.112Z,11.83
2023-02-09T08:23:16.422Z,10.33
2023-02-09T08:25:44.922Z,10.73
2023-02-09T08:28:22.741Z,10.97
2023-02-09T08:30:55.598Z,9.47
2023-02-09T08:33:30.440Z,11.37
2023-02-09T08:35:58.574Z,8.93
2023-02-09T08:38:33.427Z,10.43
2023-02-09T08:41:04.592Z,12.10
2023-02-09T08:43:41.424Z,9.03
2023-02-09T08:46:12.231Z,12.50
2023-02-09T08:48:48.475Z,12.63
2023-02-09T08:51:17.680Z,11.10
2023-02-09T08:53:58.465Z,12.53
2023-02-09T08:56:26.631Z,9.13
2023-02-09T08:59:02.479Z,15.90
2023-02-09T09:01:30.809Z,13.87
2023-02-09T09:04:05.508Z,10.93
2023-02-09T09:06:40.744Z,12.00
2023-02-09T09:09:15.451Z,13.13
2023-02-09T09:11:43.729Z,11.10
2023-02-09T09:14:19.429Z,10.07
2023-02-09T09:16:47.599Z,10.43
2023-02-09T09:19:22.455Z,9.13
2023-02-09T09:21:50.625Z,12.60
2023-02-09T09:24:25.461Z,11.77
2023-02-09T09:26:53.617Z,12.90
2023-02-09T09:29:29.458Z,13.23
2023-02-09T09:31:57.606Z,11.10
2023-02-09T09:34:32.466Z,11.53
2023-02-09T09:37:00.646Z,11.27
2023-02-09T09:39:35.472Z,10.80
2023-02-09T09:42:06.242Z,9.43
2023-02-09T09:44:48.512Z,17.07
2023-02-09T09:47:21.385Z,8.83
2023-02-09T09:49:56.515Z,9.23
2023-02-09T09:52:31.255Z,11.67
2023-02-09T09:55:07.481Z,9.63
2023-02-09T09:57:41.340Z,9.30
2023-02-09T10:00:25.522Z,9.67
2023-02-09T10:02:53.850Z,10.83
2023-02-09T10:05:30.496Z,12.53
2023-02-09T10:08:13.059Z,11.50
2023-02-09T10:10:53.520Z,8.77
2023-02-09T10:13:25.012Z,9.17
2023-02-09T10:16:02.528Z,9.97
2023-02-09T10:18:35.971Z,11.43
2023-02-09T10:21:12.514Z,9.53
2023-02-09T10:23:43.364Z,10.67
2023-02-09T10:26:33.523Z,10.77
2023-02-09T10:29:26.544Z,10.30
2023-02-09T10:32:06.336Z,10.93
2023-02-09T10:34:50.600Z,11.90
2023-02-09T10:37:22.461Z,10.27
2023-02-09T10:40:22.521Z,11.23
2023-02-09T10:42:56.818Z,10.83
2023-02-09T10:45:35.674Z,12.47
2023-02-09T10:48:19.712Z,10.23
2023-02-09T10:51:00.516Z,10.13
2023-02-09T10:53:31.231Z,12.33
2023-02-09T10:56:12.546Z,9.30
2023-02-09T10:58:41.071Z,11.27
2023-02-09T11:01:26.775Z,9.23
2023-02-09T11:04:02.333Z,11.93
2023-02-09T11:06:51.525Z,9.27
2023-02-09T11:09:21.565Z,10.87
2023-02-09T11:11:56.572Z,11.93
2023-02-09T11:14:25.409Z,10.73
2023-02-09T11:17:22.583Z,12.60
2023-02-09T11:20:13.579Z,11.40
2023-02-09T11:23:14.568Z,9.93
2023-02-09T11:25:51.142Z,10.53
2023-02-09T11:28:36.623Z,11.57
2023-02-09T11:31:31.971Z,9.50
2023-02-09T11:34:15.587Z,9.70
2023-02-09T11:36:55.628Z,12.07
2023-02-09T11:39:41.587Z,12.17
2023-02-09T11:42:34.354Z,10.77
2023-02-09T11:45:12.571Z,10.17
2023-02-09T11:47:51.858Z,11.27
2023-02-09T11:50:31.618Z,11.53
2023-02-09T11:53:07.066Z,11.60
2023-02-09T11:55:46.596Z,14.00
2023-02-09T11:58:28.771Z,11.67
2023-02-09T12:01:15.601Z,11.30
2023-02-09T12:03:54.881Z,11.50
2023-02-09T12:06:40.628Z,11.73
2023-02-09T12:09:26.854Z,14.43
2023-02-09T12:12:17.610Z,12.00
2023-02-09T12:14:56.528Z,14.77
2023-02-09T12:17:38.658Z,13.57
2023-02-09T12:20:21.523Z,10.60
2023-02-09T12:23:04.637Z,11.50
2023-02-09T12:25:38.537Z,13.23
2023-02-09T12:28:44.634Z,16.50
2023-02-09T12:31:22.168Z,14.30
2023-02-09T12:34:20.629Z,14.20
2023-02-09T12:37:28.484Z,13.70
2023-02-09T12:40:30.633Z,11.80
2023-02-09T12:43:28.390Z,12.43
2023-02-09T12:46:26.842Z,12.73
2023-02-09T12:49:10.201Z,13.33
2023-02-09T12:51:59.643Z,15.47
2023-02-09T12:54:39.793Z,15.60
2023-02-09T12:57:55.652Z,14.77
2023-02-09T13:00:49.650Z,13.87
2023-02-09T13:03:27.712Z,16.73
2023-02-09T13:06:20.677Z,15.13
2023-02-09T13:08:59.644Z,14.97
2023-02-09T13:11:32.344Z,15.57
2023-02-09T13:14:10.655Z,14.17
2023-02-09T13:17:16.500Z,16.63
2023-02-09T13:20:03.718Z,18.97
2023-02-09T13:22:40.071Z,14.87
2023-02-09T13:25:22.658Z,16.07
2023-02-09T13:27:51.729Z,15.97
2023-02-09T13:30:34.879Z,15.63
2023-02-09T13:33:22.760Z,17.60
2023-02-09T13:36:22.966Z,18.83
2023-02-09T13:38:52.996Z,14.90
2023-02-09T13:41:42.729Z,15.30
2023-02-09T13:44:24.782Z,17.07
2023-02-09T13:47:01.795Z,16.70
2023-02-09T13:49:31.586Z,17.57
2023-02-09T13:52:17.803Z,19.37
2023-02-09T13:54:46.209Z,15.97
2023-02-09T13:57:37.714Z,17.63
2023-02-09T14:00:11.594Z,17.80
2023-02-09T14:02:46.777Z,17.40
2023-02-09T14:05:45.971Z,17.17
2023-02-09T14:08:23.706Z,21.97
2023-02-09T14:10:56.102Z,16.37
2023-02-09T14:13:34.716Z,17.90
2023-02-09T14:16:07.924Z,19.60
2023-02-09T14:18:55.756Z,16.77
2023-02-09T14:21:28.682Z,18.13
2023-02-09T14:24:25.778Z,18.37
2023-02-09T14:26:56.900Z,16.33
2023-02-09T14:29:34.754Z,17.77
2023-02-09T14:32:07.009Z,17.47
2023-02-09T14:34:44.772Z,18.67
2023-02-09T14:37:31.760Z,18.97
2023-02-09T14:40:08.726Z,19.20
2023-02-09T14:42:39.471Z,17.53
2023-02-09T14:45:36.774Z,17.47
2023-02-09T14:48:19.905Z,18.30
2023-02-09T14:50:55.752Z,17.73
2023-02-09T14:53:27.960Z,18.03
2023-02-09T14:56:03.748Z,17.30
2023-02-09T14:58:33.732Z,17.73
2023-02-09T15:01:09.779Z,18.23
2023-02-09T15:03:37.996Z,18.20
2023-02-09T15:06:21.811Z,18.73
2023-02-09T15:08:57.972Z,22.03
2023-02-09T15:11:50.766Z,23.60
2023-02-09T15:14:24.763Z,21.43
2023-02-09T15:16:59.805Z,23.10
2023-02-09T15:19:29.219Z,21.97
2023-02-09T15:22:07.653Z,21.03
2023-02-09T15:24:38.554Z,19.77
2023-02-09T15:27:13.748Z,22.40
2023-02-09T15:29:42.134Z,20.03
2023-02-09T15:32:21.844Z,21.47
2023-02-09T15:34:51.866Z,21.13
2023-02-09T15:37:30.807Z,23.07
2023-02-09T15:40:04.244Z,24.17
2023-02-09T15:42:55.805Z,19.30
2023-02-09T15:45:43.115Z,22.80
2023-02-09T15:48:17.795Z,23.37
2023-02-09T15:50:48.588Z,23.60
2023-02-09T15:53:25.860Z,19.53
2023-02-09T15:55:58.755Z,23.47
2023-02-09T15:58:36.795Z,21.87
2023-02-09T16:01:05.541Z,24.40
2023-02-09T16:03:40.828Z,23.90
2023-02-09T16:06:19.494Z,27.93
2023-02-09T16:08:55.845Z,23.37
2023-02-09T16:11:27.898Z,22.43
2023-02-09T16:14:02.836Z,23.23
2023-02-09T16:16:31.815Z,23.27
2023-02-09T16:19:06.809Z,21.23
2023-02-09T16:21:35.859Z,23.90
2023-02-09T16:24:12.831Z,23.80
2023-02-09T16:26:42.743Z,24.77
2023-02-09T16:29:20.827Z,25.53
2023-02-09T16:31:49.532Z,23.40
2023-02-09T16:34:23.865Z,23.80
2023-02-09T16:36:52.069Z,20.07
2023-02-09T16:39:28.839Z,22.53
2023-02-09T16:41:59.742Z,21.10
2023-02-09T16:44:36.888Z,21.30
2023-02-09T16:47:12.173Z,24.20
2023-02-09T16:49:49.872Z,24.00
2023-02-09T16:52:20.659Z,24.43
2023-02-09T16:54:57.979Z,26.77
2023-02-09T16:57:29.440Z,26.63
2023-02-09T17:00:03.884Z,24.57
2023-02-09T17:02:38.040Z,26.30
2023-02-09T17:05:25.900Z,24.73
2023-02-09T17:08:00.501Z,27.17
2023-02-09T17:10:36.869Z,28.27
2023-02-09T17:13:06.825Z,26.07
2023-02-09T17:15:48.283Z,24.30
2023-02-09T17:18:20.223Z,21.90
2023-02-09T17:20:58.927Z,29.00
2023-02-09T17:23:29.448Z,25.63
2023-02-09T17:26:04.996Z,23.07
2023-02-09T17:28:34.840Z,21.50
2023-02-09T17:31:16.951Z,22.30
2023-02-09T17:33:47.247Z,22.17
2023-02-09T17:36:27.003Z,20.33
2023-02-09T17:38:57.557Z,21.43
2023-02-09T17:41:38.904Z,22.00
2023-02-09T17:44:35.416Z,22.80
2023-02-09T17:47:07.784Z,25.47
2023-02-09T17:49:42.964Z,26.57
2023-02-09T17:52:16.907Z,20.83
2023-02-09T17:54:51.936Z,25.13
2023-02-09T17:57:21.078Z,20.87
2023-02-09T17:59:57.100Z,24.33
2023-02-09T18:02:25.433Z,24.30
2023-02-09T18:04:59.933Z,23.80
2023-02-09T18:07:34.245Z,22.10
2023-02-09T18:10:08.917Z,25.77
2023-02-09T18:12:37.202Z,21.67
2023-02-09T18:15:14.933Z,20.93
2023-02-09T18:17:44.280Z,22.53
2023-02-09T18:20:23.946Z,25.10
2023-02-09T18:22:52.791Z,21.80
2023-02-09T18:25:30.980Z,21.63
2023-02-09T18:27:59.290Z,26.83
2023-02-09T18:30:37.981Z,33.53
2023-02-09T18:33:06.903Z,32.77
2023-02-09T18:35:44.320Z,28.80
2023-02-09T18:38:14.459Z,27.77
2023-02-09T18:40:48.961Z,28.00
2023-02-09T18:43:17.277Z,25.80
2023-02-09T18:45:53.998Z,25.20
2023-02-09T18:48:22.320Z,26.90
2023-02-09T18:50:56.966Z,36.73
2023-02-09T18:53:25.195Z,25.57
2023-02-09T18:56:00.944Z,27.07
2023-02-09T18:58:29.310Z,23.73
2023-02-09T19:01:04.954Z,23.67
2023-02-09T19:03:33.318Z,24.53
2023-02-09T19:06:18.011Z,22.90
2023-02-09T19:08:46.256Z,24.83
2023-02-09T19:11:22.015Z,47.47
2023-02-09T19:14:04.511Z,33.73
2023-02-09T19:16:41.217Z,28.30
2023-02-09T19:19:09.985Z,24.40
2023-02-09T19:21:44.980Z,23.90
2023-02-09T19:24:13.687Z,24.83
2023-02-09T19:26:48.038Z,23.47
2023-02-09T19:29:16.333Z,23.97
2023-02-09T19:31:52.991Z,22.80
2023-02-09T19:34:21.151Z,21.50
2023-02-09T19:36:56.037Z,21.90
2023-02-09T19:39:25.570Z,23.70
2023-02-09T19:41:59.995Z,30.07
2023-02-09T19:44:28.741Z,27.83
2023-02-09T19:47:05.009Z,25.70
2023-02-09T19:49:34.378Z,22.47
2023-02-09T19:52:09.058Z,23.80
2023-02-09T19:54:37.278Z,24.20
2023-02-09T19:57:12.139Z,26.73
2023-02-09T19:59:40.306Z,27.03
2023-02-09T20:02:17.014Z,24.43
2023-02-09T20:04:46.011Z,25.60
2023-02-09T20:07:29.010Z,27.30
2023-02-09T20:09:58.145Z,25.33
2023-02-09T20:12:33.071Z,25.90
2023-02-09T20:15:01.263Z,27.50
2023-02-09T20:17:37.052Z,23.57
2023-02-09T20:20:05.988Z,25.43
2023-02-09T20:22:41.031Z,25.20
2023-02-09T20:25:10.683Z,29.93
2023-02-09T20:27:45.028Z,25.93
2023-02-09T20:30:14.138Z,25.40
2023-02-09T20:32:50.046Z,26.17
2023-02-09T20:35:18.446Z,25.77
2023-02-09T20:37:53.040Z,31.27
2023-02-09T20:40:21.721Z,26.23
2023-02-09T20:43:14.075Z,24.90
2023-02-09T20:45:59.676Z,28.67
2023-02-09T20:48:36.063Z,24.97
2023-02-09T20:51:05.133Z,27.43
2023-02-09T20:53:40.062Z,22.87
2023-02-09T20:56:08.674Z,27.93
2023-02-09T20:58:45.071Z,26.43
2023-02-09T21:01:13.361Z,29.70
2023-02-09T21:03:49.085Z,24.10
2023-02-09T21:06:31.587Z,24.83
2023-02-09T21:09:06.074Z,24.33
2023-02-09T21:11:34.498Z,26.20
2023-02-09T21:14:21.577Z,25.43
2023-02-09T21:16:56.477Z,26.00
2023-02-09T21:19:33.071Z,28.50
2023-02-09T21:22:01.394Z,27.73
2023-02-09T21:24:36.259Z,28.63
2023-02-09T21:27:06.529Z,25.63
2023-02-09T21:29:43.107Z,23.97
2023-02-09T21:32:12.123Z,27.17
2023-02-09T21:34:48.117Z,30.30
2023-02-09T21:37:16.402Z,25.70
2023-02-09T21:39:51.073Z,26.40
2023-02-09T21:42:28.706Z,27.20
2023-02-09T21:45:04.104Z,28.10
2023-02-09T21:47:34.149Z,28.13
2023-02-09T21:50:11.106Z,27.57
2023-02-09T21:52:39.401Z,27.80
2023-02-09T21:55:16.118Z,26.23
2023-02-09T21:57:44.403Z,26.17
2023-02-09T22:00:20.155Z,26.80
2023-02-09T22:02:52.727Z,28.90
2023-02-09T22:05:29.109Z,27.13
2023-02-09T22:08:04.202Z,30.07
2023-02-09T22:10:39.144Z,26.53
2023-02-09T22:13:09.636Z,30.27
2023-02-09T22:15:48.146Z,27.30
2023-02-09T22:18:16.398Z,25.97
2023-02-09T22:20:55.203Z,27.50
2023-02-09T22:23:30.125Z,28.37
2023-02-09T22:26:00.653Z,25.50
2023-02-09T22:28:36.590Z,25.97
2023-02-09T22:31:08.887Z,27.67
2023-02-09T22:33:44.157Z,27.70
2023-02-09T22:36:16.263Z,26.77
2023-02-09T22:38:52.237Z,25.07
2023-02-09T22:41:24.585Z,28.27
2023-02-09T22:44:01.150Z,28.33
2023-02-09T22:46:32.317Z,29.10
2023-02-09T22:49:09.178Z,29.13
2023-02-09T22:51:38.767Z,30.90
2023-02-09T22:54:14.172Z,25.97
2023-02-09T22:56:42.711Z,26.70
2023-02-09T22:59:19.223Z,27.07
2023-02-09T23:01:47.420Z,26.17
2023-02-09T23:04:22.212Z,27.63
2023-02-09T23:06:58.433Z,25.87
2023-02-09T23:09:40.234Z,25.77
2023-02-09T23:12:08.560Z,28.33
2023-02-09T23:14:43.180Z,28.50
2023-02-09T23:17:11.456Z,26.83
2023-02-09T23:19:47.210Z,24.60
2023-02-09T23:22:16.795Z,26.00
2023-02-09T23:24:52.221Z,29.37
2023-02-09T23:27:20.416Z,27.07
2023-02-09T23:29:55.188Z,26.07
2023-02-09T23:32:23.353Z,27.60
2023-02-09T23:35:01.196Z,29.37
2023-02-09T23:37:37.764Z,28.33
2023-02-09T23:40:13.223Z,27.00
2023-02-09T23:42:41.642Z,27.40
2023-02-09T23:45:17.266Z,27.07
2023-02-09T23:47:45.470Z,28.13
2023-02-09T23:50:20.292Z,24.90
2023-02-09T23:52:49.890Z,27.07
2023-02-09T23:55:25.216Z,26.67
2023-02-09T23:57:53.449Z,28.33
